createdAt,value
2023-04-18T00:02:26.086Z,100262.77
2023-04-18T00:05:35.539Z,100257.56
2023-04-18T00:09:05.012Z,100257.70
2023-04-18T00:12:36.215Z,100254.06
2023-04-18T00:16:05.674Z,100249.01
2023-04-18T00:19:35.561Z,100246.49
2023-04-18T00:23:10.701Z,100246.40
2023-04-18T00:26:10.194Z,100246.98
2023-04-18T00:29:39.561Z,100237.52
2023-04-18T00:33:11.411Z,100228.02
2023-04-18T00:36:40.781Z,100226.48
2023-04-18T00:40:10.197Z,100222.72
2023-04-18T00:43:40.020Z,100226.40
2023-04-18T00:47:07.261Z,100214.21
2023-04-18T00:50:29.727Z,100201.52
2023-04-18T00:53:59.495Z,100198.33
2023-04-18T00:57:28.813Z,100190.30
2023-04-18T01:00:58.319Z,100189.99
2023-04-18T01:04:29.114Z,100196.95
2023-04-18T01:07:58.857Z,100195.60
2023-04-18T01:11:28.490Z,100196.53
2023-04-18T01:15:04.674Z,100193.64
2023-04-18T01:18:35.268Z,100196.98
2023-04-18T01:22:06.882Z,100199.40
2023-04-18T01:25:36.363Z,100206.85
2023-04-18T01:29:05.856Z,100208.05
2023-04-18T01:32:38.259Z,100209.95
2023-04-18T01:36:07.857Z,100214.05
2023-04-18T01:39:37.466Z,100213.88
2023-04-18T01:43:08.817Z,100214.89
2023-04-18T01:46:38.136Z,100217.46
2023-04-18T01:49:49.514Z,100255.98
2023-04-18T01:53:18.988Z,100273.45
2023-04-18T01:56:48.351Z,100268.45
2023-04-18T02:00:17.806Z,100258.31
2023-04-18T02:03:47.980Z,100250.10
2023-04-18T02:07:17.731Z,100240.55
2023-04-18T02:10:47.696Z,100222.38
2023-04-18T02:14:07.543Z,100211.48
2023-04-18T02:17:37.298Z,100208.56
2023-04-18T02:20:56.683Z,100208.60
2023-04-18T02:24:26.044Z,100204.73
2023-04-18T02:27:54.169Z,100199.17
2023-04-18T02:31:23.580Z,100211.58
2023-04-18T02:34:43.143Z,100210.83
2023-04-18T02:38:02.959Z,100202.17
2023-04-18T02:41:15.255Z,100207.29
2023-04-18T02:44:35.155Z,100198.80
2023-04-18T02:48:05.396Z,100196.66
2023-04-18T02:51:25.132Z,100189.58
2023-04-18T02:54:45.973Z,100183.00
2023-04-18T02:58:15.480Z,100177.45
2023-04-18T03:01:44.751Z,100178.30
2023-04-18T03:05:16.954Z,100181.17
2023-04-18T03:08:47.451Z,100188.39
2023-04-18T03:11:48.033Z,100195.44
2023-04-18T03:14:47.790Z,100195.55
2023-04-18T03:18:07.825Z,100198.76
2023-04-18T03:21:37.000Z,100201.63
2023-04-18T03:24:32.829Z,100208.54
2023-04-18T03:27:32.682Z,100217.88
2023-04-18T03:31:02.078Z,100226.70
2023-04-18T03:34:21.580Z,100237.66
2023-04-18T03:37:51.122Z,100236.94
2023-04-18T03:41:20.664Z,100255.52
2023-04-18T03:44:50.141Z,100256.23
2023-04-18T03:48:10.090Z,100264.61
2023-04-18T03:51:33.224Z,100263.95
2023-04-18T03:55:03.251Z,100275.35
2023-04-18T03:58:32.724Z,100271.20
2023-04-18T04:01:51.980Z,100275.55
2023-04-18T04:05:12.353Z,100269.73
2023-04-18T04:08:41.826Z,100284.09
2023-04-18T04:11:51.314Z,100278.69
2023-04-18T04:14:56.284Z,100243.59
2023-04-18T04:17:26.754Z,100216.25
2023-04-18T04:20:35.383Z,100217.38
2023-04-18T04:23:15.801Z,100219.89
2023-04-18T04:25:48.466Z,100225.55
2023-04-18T04:28:51.605Z,100228.27
2023-04-18T04:31:56.135Z,100227.39
2023-04-18T04:34:35.454Z,100225.09
2023-04-18T04:37:27.784Z,100221.26
2023-04-18T04:40:48.190Z,100216.40
2023-04-18T04:44:17.975Z,100219.81
2023-04-18T04:47:32.391Z,100226.36
2023-04-18T04:50:36.003Z,100221.23
2023-04-18T04:53:12.779Z,100212.83
2023-04-18T04:55:45.961Z,100211.27
2023-04-18T04:58:24.274Z,100211.79
2023-04-18T05:01:13.642Z,100210.75
2023-04-18T05:03:53.486Z,100205.36
2023-04-18T05:06:55.512Z,100205.85
2023-04-18T05:09:24.561Z,100210.82
2023-04-18T05:11:53.991Z,100212.61
2023-04-18T05:14:33.204Z,100216.36
2023-04-18T05:17:32.535Z,100214.95
2023-04-18T05:20:45.676Z,100212.85
2023-04-18T05:24:16.123Z,100210.60
2023-04-18T05:26:49.336Z,100212.15
2023-04-18T05:29:39.653Z,100204.73
2023-04-18T05:32:29.078Z,100201.25
2023-04-18T05:35:29.103Z,100195.19
2023-04-18T05:38:18.391Z,100195.71
2023-04-18T05:40:47.581Z,100195.43
2023-04-18T05:43:24.322Z,100191.86
2023-04-18T05:46:10.211Z,100184.85
2023-04-18T05:48:55.592Z,100180.58
2023-04-18T05:51:40.774Z,100178.17
2023-04-18T05:54:44.992Z,100179.36
2023-04-18T05:57:17.993Z,100179.54
2023-04-18T06:00:01.787Z,100174.89
2023-04-18T06:02:38.486Z,100169.73
2023-04-18T06:05:18.165Z,100172.29
2023-04-18T06:07:49.044Z,100175.15
2023-04-18T06:10:21.859Z,100176.16
2023-04-18T06:12:54.290Z,100172.17
2023-04-18T06:15:36.046Z,100169.23
2023-04-18T06:18:11.253Z,100165.97
2023-04-18T06:20:48.253Z,100163.38
2023-04-18T06:23:25.522Z,100162.13
2023-04-18T06:26:44.676Z,100161.55
2023-04-18T06:29:41.901Z,100160.77
2023-04-18T06:32:54.325Z,100158.95
2023-04-18T06:36:23.644Z,100158.20
2023-04-18T06:39:24.421Z,100154.70
2023-04-18T06:42:23.964Z,100153.98
2023-04-18T06:45:53.568Z,100157.23
2023-04-18T06:49:26.425Z,100154.76
2023-04-18T06:52:36.402Z,100152.49
2023-04-18T06:56:05.613Z,100147.40
2023-04-18T06:59:34.994Z,100142.66
2023-04-18T07:02:33.798Z,100150.14
2023-04-18T07:06:03.489Z,100150.24
2023-04-18T07:09:33.307Z,100146.77
2023-04-18T07:12:42.934Z,100161.86
2023-04-18T07:16:12.450Z,100160.63
2023-04-18T07:19:42.102Z,100163.71
2023-04-18T07:23:11.477Z,100167.11
2023-04-18T07:26:40.822Z,100172.56
2023-04-18T07:29:50.570Z,100173.88
2023-04-18T07:33:20.014Z,100170.21
2023-04-18T07:36:49.257Z,100159.45
2023-04-18T07:40:18.553Z,100158.31
2023-04-18T07:43:47.693Z,100162.36
2023-04-18T07:47:07.835Z,100157.16
2023-04-18T07:50:36.831Z,100164.00
2023-04-18T07:54:06.283Z,100161.94
2023-04-18T07:57:35.764Z,100161.95
2023-04-18T08:00:38.539Z,100163.72
2023-04-18T08:04:08.433Z,100165.62
2023-04-18T08:07:38.979Z,100171.29
2023-04-18T08:11:08.566Z,100169.20
2023-04-18T08:14:30.851Z,100172.27
2023-04-18T08:17:55.068Z,100172.63
2023-04-18T08:21:18.363Z,100178.35
2023-04-18T08:25:03.249Z,100183.02
2023-04-18T08:28:34.083Z,100189.96
2023-04-18T08:32:03.967Z,100189.67
2023-04-18T08:35:33.160Z,100189.51
2023-04-18T08:38:51.719Z,100186.08
2023-04-18T08:42:30.174Z,100189.21
2023-04-18T08:45:59.780Z,100192.00
2023-04-18T08:49:29.137Z,100192.99
2023-04-18T08:52:58.500Z,100192.65
2023-04-18T08:56:27.928Z,100185.39
2023-04-18T08:59:57.786Z,100179.88
2023-04-18T09:03:33.797Z,100181.06
2023-04-18T09:07:09.492Z,100181.21
2023-04-18T09:10:54.139Z,100175.14
2023-04-18T09:14:23.418Z,100164.80
2023-04-18T09:17:53.745Z,100161.52
2023-04-18T09:21:28.963Z,100168.39
2023-04-18T09:25:04.872Z,100161.13
2023-04-18T09:28:17.819Z,100156.77
2023-04-18T09:31:52.744Z,100154.65
2023-04-18T09:35:24.240Z,100154.91
2023-04-18T09:38:56.314Z,100149.16
2023-04-18T09:42:28.766Z,100142.19
2023-04-18T09:46:01.399Z,100143.51
2023-04-18T09:49:30.939Z,100140.27
2023-04-18T09:53:04.302Z,100146.99
2023-04-18T09:56:24.458Z,100158.18
2023-04-18T09:59:53.779Z,100164.29
2023-04-18T10:03:32.073Z,100163.64
2023-04-18T10:06:52.395Z,100161.96
2023-04-18T10:10:21.861Z,100160.60
2023-04-18T10:13:51.136Z,100153.84
2023-04-18T10:16:57.890Z,100156.50
2023-04-18T10:20:28.452Z,100153.80
2023-04-18T10:24:15.890Z,100155.25
2023-04-18T10:27:34.342Z,100168.41
2023-04-18T10:31:03.710Z,100166.25
2023-04-18T10:34:28.479Z,100178.36
2023-04-18T10:38:04.149Z,100176.83
2023-04-18T10:41:36.614Z,100175.79
2023-04-18T10:45:09.433Z,100172.14
2023-04-18T10:48:38.591Z,100172.33
2023-04-18T10:51:41.210Z,100183.02
2023-04-18T10:54:58.482Z,100196.90
2023-04-18T10:58:10.074Z,100197.64
2023-04-18T11:01:32.115Z,100202.85
2023-04-18T11:05:03.840Z,100203.09
2023-04-18T11:08:34.683Z,100204.33
2023-04-18T11:11:45.262Z,100207.33
2023-04-18T11:15:24.202Z,100218.77
2023-04-18T11:18:55.272Z,100221.07
2023-04-18T11:22:24.739Z,100222.69
2023-04-18T11:25:54.411Z,100227.12
2023-04-18T11:29:24.134Z,100227.10
2023-04-18T11:32:36.806Z,100224.77
2023-04-18T11:35:45.591Z,100222.18
2023-04-18T11:38:54.859Z,100220.42
2023-04-18T11:41:49.512Z,100224.41
2023-04-18T11:44:52.172Z,100225.13
2023-04-18T11:48:33.347Z,100226.21
2023-04-18T11:51:57.445Z,100230.27
2023-04-18T11:55:36.146Z,100232.90
2023-04-18T11:59:02.094Z,100238.02
2023-04-18T12:02:31.404Z,100235.77
2023-04-18T12:06:09.820Z,100240.32
2023-04-18T12:09:11.721Z,100240.44
2023-04-18T12:12:26.631Z,100246.64
2023-04-18T12:15:39.572Z,100252.98
2023-04-18T12:18:52.644Z,100264.29
2023-04-18T12:21:30.817Z,100282.95
2023-04-18T12:24:25.374Z,100278.92
2023-04-18T12:27:40.755Z,100291.48
2023-04-18T12:30:31.975Z,100281.84
2023-04-18T12:33:35.385Z,100285.62
2023-04-18T12:37:04.775Z,100293.16
2023-04-18T12:40:17.251Z,100295.33
2023-04-18T12:43:18.785Z,100324.27
2023-04-18T12:46:31.576Z,100327.55
2023-04-18T12:49:40.727Z,100336.58
2023-04-18T12:52:50.570Z,100346.42
2023-04-18T12:56:10.950Z,100356.61
2023-04-18T12:59:20.936Z,100369.05
2023-04-18T13:02:10.758Z,100369.48
2023-04-18T13:04:51.242Z,100364.67
2023-04-18T13:07:54.071Z,100357.19
2023-04-18T13:11:27.997Z,100361.35
2023-04-18T13:14:09.483Z,100363.86
2023-04-18T13:16:49.412Z,100364.69
2023-04-18T13:20:01.968Z,100366.62
2023-04-18T13:23:13.962Z,100374.84
2023-04-18T13:26:06.312Z,100375.02
2023-04-18T13:28:52.267Z,100376.39
2023-04-18T13:31:50.357Z,100390.42
2023-04-18T13:35:11.146Z,100405.14
2023-04-18T13:38:18.249Z,100409.61
2023-04-18T13:41:27.035Z,100415.41
2023-04-18T13:44:36.348Z,100414.53
2023-04-18T13:48:05.782Z,100425.08
2023-04-18T13:51:34.305Z,100427.21
2023-04-18T13:54:16.077Z,100433.98
2023-04-18T13:56:47.804Z,100465.02
2023-04-18T13:59:21.120Z,100465.98
2023-04-18T14:01:57.517Z,100463.19
2023-04-18T14:04:38.574Z,100465.06
2023-04-18T14:07:40.070Z,100464.55
2023-04-18T14:10:12.793Z,100477.97
2023-04-18T14:12:42.251Z,100488.83
2023-04-18T14:15:34.808Z,100501.73
2023-04-18T14:18:44.119Z,100513.95
2023-04-18T14:21:32.886Z,100509.30
2023-04-18T14:24:15.257Z,100509.82
2023-04-18T14:26:54.003Z,100509.98
2023-04-18T14:29:47.840Z,100518.75
2023-04-18T14:32:28.950Z,100531.73
2023-04-18T14:34:58.220Z,100543.55
2023-04-18T14:37:40.793Z,100547.67
2023-04-18T14:40:13.502Z,100546.69
2023-04-18T14:43:23.421Z,100547.66
2023-04-18T14:46:03.060Z,100554.58
2023-04-18T14:48:35.248Z,100555.73
2023-04-18T14:51:14.843Z,100549.16
2023-04-18T14:53:47.318Z,100545.95
2023-04-18T14:56:22.045Z,100547.21
2023-04-18T14:58:53.018Z,100551.20
2023-04-18T15:01:25.739Z,100557.39
2023-04-18T15:04:21.241Z,100567.93
2023-04-18T15:06:50.692Z,100573.04
2023-04-18T15:10:20.025Z,100580.81
2023-04-18T15:12:59.784Z,100592.74
2023-04-18T15:15:47.960Z,100601.89
2023-04-18T15:18:47.298Z,100605.77
2023-04-18T15:22:16.542Z,100590.59
2023-04-18T15:25:28.138Z,100587.90
2023-04-18T15:28:38.875Z,100593.05
2023-04-18T15:32:08.179Z,100595.27
2023-04-18T15:35:37.837Z,100598.23
2023-04-18T15:38:37.443Z,100600.42
2023-04-18T15:41:48.445Z,100617.04
2023-04-18T15:44:47.888Z,100625.05
2023-04-18T15:48:17.159Z,100631.70
2023-04-18T15:51:06.613Z,100649.02
2023-04-18T15:53:49.483Z,100656.17
2023-04-18T15:56:43.370Z,100663.77
2023-04-18T15:59:37.944Z,100662.92
2023-04-18T16:02:20.597Z,100670.38
2023-04-18T16:04:53.802Z,100682.48
2023-04-18T16:07:22.837Z,100676.65
2023-04-18T16:10:04.093Z,100681.86
2023-04-18T16:12:33.397Z,100679.55
2023-04-18T16:15:02.580Z,100670.37
2023-04-18T16:17:35.234Z,100668.77
2023-04-18T16:20:04.860Z,100666.58
2023-04-18T16:23:14.570Z,100668.33
2023-04-18T16:25:43.701Z,100677.14
2023-04-18T16:28:54.043Z,100675.15
2023-04-18T16:31:38.645Z,100680.92
2023-04-18T16:34:58.005Z,100684.05
2023-04-18T16:37:56.513Z,100691.15
2023-04-18T16:40:48.590Z,100701.95
2023-04-18T16:43:39.593Z,100704.20
2023-04-18T16:46:51.994Z,100696.06
2023-04-18T16:50:11.106Z,100701.30
2023-04-18T16:53:20.206Z,100710.91
2023-04-18T16:56:10.531Z,100711.83
2023-04-18T16:59:21.218Z,100719.40
2023-04-18T17:02:44.655Z,100728.21
2023-04-18T17:05:34.153Z,100738.77
2023-04-18T17:08:34.327Z,100745.39
2023-04-18T17:11:17.728Z,100749.06
2023-04-18T17:13:51.462Z,100745.52
2023-04-18T17:16:49.130Z,100752.64
2023-04-18T17:20:00.073Z,100754.59
2023-04-18T17:23:30.984Z,100756.48
2023-04-18T17:26:42.921Z,100763.99
2023-04-18T17:29:26.520Z,100776.08
2023-04-18T17:32:05.249Z,100778.15
2023-04-18T17:34:34.230Z,100782.06
2023-04-18T17:37:04.186Z,100787.34
2023-04-18T17:39:36.823Z,100792.48
2023-04-18T17:42:11.753Z,100800.80
2023-04-18T17:44:45.396Z,100800.84
2023-04-18T17:47:19.198Z,100808.48
2023-04-18T17:50:48.638Z,100802.88
2023-04-18T17:53:23.631Z,100822.91
2023-04-18T17:55:53.405Z,100836.39
2023-04-18T17:58:24.030Z,100833.52
2023-04-18T18:00:56.587Z,100843.08
2023-04-18T18:03:31.575Z,100843.88
2023-04-18T18:06:01.063Z,100844.11
2023-04-18T18:08:33.012Z,100852.70
2023-04-18T18:11:14.420Z,100855.58
2023-04-18T18:13:43.692Z,100867.07
2023-04-18T18:16:16.330Z,100871.03
2023-04-18T18:18:45.592Z,100877.02
2023-04-18T18:21:51.898Z,100882.14
2023-04-18T18:24:23.122Z,100884.68
2023-04-18T18:27:12.776Z,100883.55
2023-04-18T18:29:45.274Z,100879.79
2023-04-18T18:32:25.931Z,100877.52
2023-04-18T18:35:07.432Z,100888.20
2023-04-18T18:37:36.521Z,100882.20
2023-04-18T18:40:06.206Z,100890.16
2023-04-18T18:42:35.821Z,100884.71
2023-04-18T18:45:06.892Z,100891.86
2023-04-18T18:47:37.496Z,100886.96
2023-04-18T18:50:08.732Z,100891.25
2023-04-18T18:53:17.438Z,100891.67
2023-04-18T18:56:10.529Z,100891.45
2023-04-18T18:58:42.090Z,100888.71
2023-04-18T19:01:21.713Z,100895.13
2023-04-18T19:04:18.310Z,100904.80
2023-04-18T19:06:51.113Z,100907.88
2023-04-18T19:10:02.912Z,100916.94
2023-04-18T19:13:12.322Z,100915.90
2023-04-18T19:16:30.767Z,100924.97
2023-04-18T19:19:52.825Z,100931.71
2023-04-18T19:22:37.369Z,100937.50
2023-04-18T19:25:30.341Z,100925.49
2023-04-18T19:28:48.040Z,100929.55
2023-04-18T19:31:20.001Z,100925.84
2023-04-18T19:33:55.061Z,100926.44
2023-04-18T19:36:24.744Z,100922.57
2023-04-18T19:38:54.280Z,100930.30
2023-04-18T19:41:23.755Z,100934.09
2023-04-18T19:43:53.044Z,100936.33
2023-04-18T19:46:22.293Z,100934.76
2023-04-18T19:49:07.343Z,100939.05
2023-04-18T19:51:36.915Z,100946.55
2023-04-18T19:54:06.666Z,100943.30
2023-04-18T19:56:58.731Z,100942.54
2023-04-18T19:59:44.547Z,100948.19
2023-04-18T20:02:22.674Z,100963.64
2023-04-18T20:04:52.016Z,100972.78
2023-04-18T20:07:22.376Z,100973.44
2023-04-18T20:10:14.438Z,100984.48
2023-04-18T20:13:06.968Z,100990.18
2023-04-18T20:15:59.396Z,100994.27
2023-04-18T20:18:28.786Z,100996.09
2023-04-18T20:20:57.855Z,100988.20
2023-04-18T20:23:33.178Z,100986.91
2023-04-18T20:26:03.174Z,100991.17
2023-04-18T20:28:53.866Z,100986.14
2023-04-18T20:31:25.648Z,100983.42
2023-04-18T20:34:33.362Z,100983.83
2023-04-18T20:37:45.190Z,100989.60
2023-04-18T20:40:47.022Z,100997.64
2023-04-18T20:43:39.766Z,100999.41
2023-04-18T20:46:18.239Z,101002.47
2023-04-18T20:48:57.485Z,101005.77
2023-04-18T20:51:48.026Z,101012.71
2023-04-18T20:54:29.535Z,101014.02
2023-04-18T20:57:21.877Z,101022.56
2023-04-18T21:00:20.915Z,101020.56
2023-04-18T21:03:13.163Z,101023.39
2023-04-18T21:06:44.273Z,101025.15
2023-04-18T21:09:26.965Z,101032.75
2023-04-18T21:12:36.448Z,101036.73
2023-04-18T21:15:45.370Z,101037.52
2023-04-18T21:18:26.768Z,101041.98
2023-04-18T21:20:59.010Z,101047.39
2023-04-18T21:23:34.572Z,101050.14
2023-04-18T21:26:03.574Z,101057.48
2023-04-18T21:29:05.303Z,101054.80
2023-04-18T21:31:44.521Z,101059.27
2023-04-18T21:34:59.816Z,101061.98
2023-04-18T21:37:49.304Z,101066.67
2023-04-18T21:41:11.716Z,101064.64
2023-04-18T21:44:12.871Z,101076.45
2023-04-18T21:47:23.820Z,101075.61
2023-04-18T21:50:36.388Z,101069.66
2023-04-18T21:53:56.349Z,101075.52
2023-04-18T21:56:28.965Z,101073.38
2023-04-18T21:59:33.472Z,101077.75
2023-04-18T22:02:06.381Z,101074.90
2023-04-18T22:05:04.569Z,101076.54
2023-04-18T22:08:13.594Z,101081.45
2023-04-18T22:10:46.085Z,101089.38
2023-04-18T22:13:21.380Z,101083.84
2023-04-18T22:16:03.842Z,101086.21
2023-04-18T22:19:15.272Z,101089.21
2023-04-18T22:22:14.212Z,101088.64
2023-04-18T22:24:44.930Z,101089.22
2023-04-18T22:27:43.966Z,101089.83
2023-04-18T22:30:33.392Z,101082.61
2023-04-18T22:33:09.068Z,101084.90
2023-04-18T22:35:38.172Z,101090.38
2023-04-18T22:38:36.023Z,101086.63
2023-04-18T22:41:16.748Z,101092.94
2023-04-18T22:43:49.865Z,101087.56
2023-04-18T22:46:46.057Z,101080.30
2023-04-18T22:49:19.026Z,101072.83
2023-04-18T22:52:25.012Z,101071.67
2023-04-18T22:55:17.285Z,101087.81
2023-04-18T22:58:47.975Z,101092.38
2023-04-18T23:02:17.229Z,101075.12
2023-04-18T23:05:17.732Z,101082.83
2023-04-18T23:08:00.618Z,101080.08
2023-04-18T23:10:41.812Z,101073.23
2023-04-18T23:16:20.924Z,101084.03
2023-04-18T23:19:30.127Z,101086.17
2023-04-18T23:21:59.266Z,101086.30
2023-04-18T23:24:28.841Z,101085.45
2023-04-18T23:27:07.211Z,101088.17
2023-04-18T23:29:40.658Z,101088.59
2023-04-18T23:32:10.415Z,101086.44
2023-04-18T23:35:09.160Z,101101.04
2023-04-18T23:37:43.991Z,101094.98
2023-04-18T23:41:08.134Z,101096.36
2023-04-18T23:44:07.286Z,101101.65
2023-04-18T23:47:10.303Z,101108.01
2023-04-18T23:49:39.705Z,101105.83
2023-04-18T23:52:11.912Z,101113.06
2023-04-18T23:54:47.624Z,101108.63
2023-04-18T23:57:19.504Z,101116.17
